createdAt,value
2022-08-23T00:01:00.949Z,56.70
2022-08-23T00:11:08.176Z,58.90
2022-08-23T00:21:14.272Z,59.20
2022-08-23T00:31:18.364Z,61.60
2022-08-23T00:41:24.564Z,64.00
2022-08-23T00:51:39.203Z,62.40
2022-08-23T01:01:58.469Z,63.80
2022-08-23T01:12:10.082Z,67.00
2022-08-23T01:22:26.549Z,69.70
2022-08-23T01:32:41.258Z,70.00
2022-08-23T01:42:45.019Z,70.30
2022-08-23T01:52:50.295Z,69.70
2022-08-23T02:02:54.146Z,70.00
2022-08-23T02:12:59.799Z,70.80
2022-08-23T02:23:09.293Z,74.50
2022-08-23T02:33:19.364Z,77.30
2022-08-23T02:43:24.144Z,78.60
2022-08-23T02:53:29.344Z,79.70
2022-08-23T03:03:34.115Z,79.70
2022-08-23T03:13:44.638Z,80.50
2022-08-23T03:23:49.677Z,81.80
2022-08-23T03:33:55.389Z,83.90
2022-08-23T03:43:59.299Z,84.80
2022-08-23T03:54:07.273Z,84.20
2022-08-23T04:04:11.439Z,86.50
2022-08-23T04:14:16.949Z,86.50
2022-08-23T04:24:21.472Z,87.20
2022-08-23T04:34:28.683Z,87.70
2022-08-23T04:44:37.464Z,88.40
2022-08-23T04:54:42.534Z,90.30
2022-08-23T05:04:46.938Z,90.90
2022-08-23T05:14:52.105Z,90.80
2022-08-23T05:24:55.828Z,90.70
2022-08-23T05:35:01.683Z,89.00
2022-08-23T05:45:06.858Z,87.80
2022-08-23T05:55:18.535Z,88.00
2022-08-23T06:05:27.647Z,88.70
2022-08-23T06:15:32.850Z,89.10
2022-08-23T06:25:38.211Z,90.20
2022-08-23T06:35:44.845Z,88.60
2022-08-23T06:45:54.987Z,85.40
2022-08-23T06:56:03.456Z,83.90
2022-08-23T07:06:10.615Z,81.90
2022-08-23T07:16:18.176Z,80.50
2022-08-23T07:26:22.641Z,78.10
2022-08-23T07:36:31.998Z,76.20
2022-08-23T07:46:40.142Z,75.90
2022-08-23T07:56:45.741Z,74.80
2022-08-23T08:07:17.173Z,73.40
2022-08-23T08:17:30.317Z,72.30
2022-08-23T08:27:34.442Z,68.80
2022-08-23T08:37:40.905Z,68.60
2022-08-23T08:47:50.220Z,67.60
2022-08-23T08:57:56.599Z,65.80
2022-08-23T09:08:37.461Z,64.30
2022-08-23T09:18:42.589Z,63.50
2022-08-23T09:28:47.984Z,62.00
2022-08-23T09:38:56.686Z,61.40
2022-08-23T09:49:01.519Z,60.00
2022-08-23T09:59:26.749Z,58.80
2022-08-23T10:09:38.030Z,57.80
2022-08-23T10:19:52.607Z,57.30
2022-08-23T10:30:05.743Z,56.40
2022-08-23T10:40:17.869Z,56.40
2022-08-23T10:50:22.165Z,55.20
2022-08-23T11:00:31.940Z,54.60
2022-08-23T11:10:55.752Z,52.90
2022-08-23T11:21:12.906Z,52.30
2022-08-23T11:31:27.297Z,51.30
2022-08-23T11:41:35.066Z,50.30
2022-08-23T11:51:46.563Z,50.60
2022-08-23T12:02:02.010Z,48.00
2022-08-23T12:12:25.417Z,47.40
2022-08-23T12:22:52.526Z,45.70
2022-08-23T12:33:09.829Z,44.70
2022-08-23T12:43:23.883Z,45.20
2022-08-23T12:53:31.748Z,44.20
2022-08-23T13:03:41.450Z,44.30
2022-08-23T13:13:51.323Z,43.50
2022-08-23T13:24:03.064Z,41.90
2022-08-23T13:34:06.832Z,42.50
2022-08-23T13:44:16.938Z,41.40
2022-08-23T13:54:24.740Z,41.00
2022-08-23T14:04:30.233Z,41.00
2022-08-23T14:14:36.400Z,40.40
2022-08-23T14:24:45.436Z,40.40
2022-08-23T14:34:49.382Z,39.90
2022-08-23T14:44:54.565Z,38.90
2022-08-23T14:54:58.401Z,38.30
2022-08-23T15:05:04.548Z,38.50
2022-08-23T15:15:12.619Z,38.50
2022-08-23T15:25:18.707Z,38.50
2022-08-23T15:35:23.631Z,37.70
2022-08-23T15:45:28.783Z,37.60
2022-08-23T15:55:34.248Z,36.40
2022-08-23T16:05:41.073Z,36.70
2022-08-23T16:15:45.071Z,36.90
2022-08-23T16:26:00.886Z,36.40
2022-08-23T16:36:08.187Z,36.60
2022-08-23T16:46:15.800Z,36.40
2022-08-23T16:56:21.151Z,34.60
2022-08-23T17:06:26.469Z,34.20
2022-08-23T17:16:30.466Z,34.50
2022-08-23T17:26:35.957Z,33.00
2022-08-23T17:36:47.707Z,32.40
2022-08-23T17:46:55.871Z,33.00
2022-08-23T17:57:02.243Z,34.40
2022-08-23T18:07:09.933Z,38.40
2022-08-23T18:17:13.824Z,43.10
2022-08-23T18:27:36.828Z,45.50
2022-08-23T18:37:41.712Z,48.00
2022-08-23T18:47:47.040Z,46.70
2022-08-23T18:57:50.850Z,48.10
2022-08-23T19:07:57.273Z,49.70
2022-08-23T19:18:05.258Z,52.10
2022-08-23T19:28:10.372Z,54.50
2022-08-23T19:38:14.362Z,54.10
2022-08-23T19:48:20.181Z,55.50
2022-08-23T19:58:26.305Z,57.20
2022-08-23T20:08:32.050Z,57.70
2022-08-23T20:18:35.983Z,58.20
2022-08-23T20:28:55.219Z,59.10
2022-08-23T20:39:12.290Z,60.00
2022-08-23T20:49:17.665Z,58.90
2022-08-23T20:59:22.872Z,58.70
2022-08-23T21:09:29.594Z,60.10
2022-08-23T21:19:35.153Z,61.80
2022-08-23T21:29:39.297Z,64.80
2022-08-23T21:39:44.422Z,65.70
2022-08-23T21:49:58.558Z,64.70
2022-08-23T22:00:06.406Z,63.50
2022-08-23T22:10:11.809Z,62.00
2022-08-23T22:20:17.861Z,62.10
2022-08-23T22:30:23.369Z,63.00
2022-08-23T22:40:28.775Z,65.60
2022-08-23T22:50:32.547Z,66.20
2022-08-23T23:00:43.687Z,65.90
2022-08-23T23:10:47.652Z,67.00
2022-08-23T23:20:54.415Z,67.50
2022-08-23T23:30:59.503Z,68.40
2022-08-23T23:41:07.984Z,69.00
2022-08-23T23:51:14.959Z,71.40
